createdAt,value
2024-02-08T00:00:40.942Z,97332.34
2024-02-08T00:06:03.449Z,97328.91
2024-02-08T00:11:26.340Z,97343.28
2024-02-08T00:16:48.180Z,97338.56
2024-02-08T00:22:10.040Z,97330.16
2024-02-08T00:27:32.414Z,97320.34
2024-02-08T00:32:54.316Z,97311.94
2024-02-08T00:38:16.496Z,97315.34
2024-02-08T00:43:41.065Z,97307.88
2024-02-08T00:49:03.034Z,97317.16
2024-02-08T00:54:25.358Z,97307.09
2024-02-08T00:59:47.206Z,97304.00
2024-02-08T01:05:09.266Z,97301.41
2024-02-08T01:10:31.355Z,97293.22
2024-02-08T01:15:54.962Z,97297.81
2024-02-08T01:21:16.868Z,97306.09
2024-02-08T01:26:38.695Z,97311.97
2024-02-08T01:32:01.871Z,97314.69
2024-02-08T01:37:23.888Z,97314.34
2024-02-08T01:42:49.626Z,97316.13
2024-02-08T01:48:13.726Z,97301.91
2024-02-08T01:53:35.676Z,97291.31
2024-02-08T01:59:01.557Z,97302.25
2024-02-08T02:04:24.046Z,97302.81
2024-02-08T02:09:45.992Z,97290.75
2024-02-08T02:15:08.034Z,97302.47
2024-02-08T02:20:31.043Z,97292.50
2024-02-08T02:25:53.459Z,97282.19
2024-02-08T02:31:16.505Z,97268.78
2024-02-08T02:36:39.417Z,97264.75
2024-02-08T02:42:01.824Z,97267.00
2024-02-08T02:47:27.072Z,97259.44
2024-02-08T02:52:51.284Z,97256.09
2024-02-08T02:58:13.598Z,97259.66
2024-02-08T03:03:39.325Z,97262.50
2024-02-08T03:09:06.829Z,97256.81
2024-02-08T03:14:29.299Z,97242.19
2024-02-08T03:19:51.192Z,97242.34
2024-02-08T03:25:16.191Z,97230.81
2024-02-08T03:30:38.091Z,97239.72
2024-02-08T03:36:00.599Z,97234.38
2024-02-08T03:41:22.599Z,97248.25
2024-02-08T03:46:44.928Z,97253.72
2024-02-08T03:52:10.100Z,97252.63
2024-02-08T03:57:33.055Z,97252.66
2024-02-08T04:02:58.309Z,97253.97
2024-02-08T04:08:38.990Z,97237.59
2024-02-08T04:14:19.448Z,97243.03
2024-02-08T04:19:59.527Z,97222.38
2024-02-08T04:25:39.806Z,97230.13
2024-02-08T04:31:20.041Z,97218.59
2024-02-08T04:37:00.239Z,97216.69
2024-02-08T04:42:57.267Z,97216.69
2024-02-08T04:48:37.469Z,97219.16
2024-02-08T04:54:02.807Z,97225.25
2024-02-08T04:59:24.774Z,97216.69
2024-02-08T05:04:50.184Z,97196.63
2024-02-08T05:10:12.301Z,97203.41
2024-02-08T05:15:34.197Z,97199.72
2024-02-08T05:20:58.586Z,97192.75
2024-02-08T05:26:20.515Z,97183.47
2024-02-08T05:31:42.922Z,97199.25
2024-02-08T05:37:05.060Z,97205.53
2024-02-08T05:42:27.033Z,97205.66
2024-02-08T05:47:51.480Z,97197.69
2024-02-08T05:53:17.016Z,97202.34
2024-02-08T05:58:39.849Z,97194.63
2024-02-08T06:04:03.416Z,97204.59
2024-02-08T06:09:43.422Z,97215.47
2024-02-08T06:15:22.345Z,97208.84
2024-02-08T06:20:52.772Z,97214.97
2024-02-08T06:26:14.586Z,97215.06
2024-02-08T06:31:42.379Z,97222.25
2024-02-08T06:37:18.351Z,97227.28
2024-02-08T06:42:40.554Z,97216.84
2024-02-08T06:48:02.461Z,97217.78
2024-02-08T06:53:42.758Z,97226.41
2024-02-08T06:59:23.036Z,97213.63
2024-02-08T07:05:03.998Z,97214.22
2024-02-08T07:10:44.887Z,97222.06
2024-02-08T07:16:25.477Z,97212.91
2024-02-08T07:22:05.933Z,97209.94
2024-02-08T07:27:46.353Z,97206.41
2024-02-08T07:33:26.839Z,97209.50
2024-02-08T07:38:55.141Z,97211.16
2024-02-08T07:44:23.932Z,97208.19
2024-02-08T07:49:46.517Z,97219.81
2024-02-08T07:55:27.539Z,97218.56
2024-02-08T08:00:51.110Z,97212.50
2024-02-08T08:06:16.482Z,97209.66
2024-02-08T08:11:41.013Z,97208.50
2024-02-08T08:17:11.559Z,97206.34
2024-02-08T08:22:33.490Z,97210.63
2024-02-08T08:28:11.577Z,97204.25
2024-02-08T08:33:52.209Z,97200.31
2024-02-08T08:39:43.290Z,97202.94
2024-02-08T08:45:10.857Z,97194.63
2024-02-08T08:50:32.816Z,97202.47
2024-02-08T08:55:56.874Z,97194.84
2024-02-08T09:01:23.661Z,97188.91
2024-02-08T09:06:48.847Z,97195.41
2024-02-08T09:12:11.147Z,97194.44
2024-02-08T09:17:53.026Z,97185.31
2024-02-08T09:23:16.990Z,97185.66
2024-02-08T09:28:43.550Z,97183.78
2024-02-08T09:34:15.838Z,97177.59
2024-02-08T09:39:53.506Z,97171.56
2024-02-08T09:45:25.425Z,97177.06
2024-02-08T09:50:54.459Z,97170.69
2024-02-08T09:56:24.952Z,97174.53
2024-02-08T10:01:50.983Z,97184.53
2024-02-08T10:07:18.189Z,97176.44
2024-02-08T10:12:54.550Z,97161.31
2024-02-08T10:18:24.553Z,97157.53
2024-02-08T10:24:00.340Z,97152.75
2024-02-08T10:29:26.343Z,97154.97
2024-02-08T10:34:53.454Z,97134.34
2024-02-08T10:40:33.865Z,97130.38
2024-02-08T10:46:03.606Z,97131.97
2024-02-08T10:51:27.205Z,97130.84
2024-02-08T10:57:08.444Z,97130.53
2024-02-08T11:02:33.616Z,97123.91
2024-02-08T11:07:55.791Z,97105.59
2024-02-08T11:13:30.318Z,97100.56
2024-02-08T11:18:55.711Z,97097.31
2024-02-08T11:24:33.480Z,97096.53
2024-02-08T11:29:58.258Z,97068.69
2024-02-08T11:35:22.796Z,97057.72
2024-02-08T11:40:46.903Z,97048.91
2024-02-08T11:46:23.262Z,97040.94
2024-02-08T11:51:50.448Z,97046.59
2024-02-08T11:57:16.973Z,97033.75
2024-02-08T12:02:40.769Z,97029.47
2024-02-08T12:08:11.197Z,97019.56
2024-02-08T12:13:40.363Z,97015.81
2024-02-08T12:19:08.384Z,96995.41
2024-02-08T12:24:36.106Z,96992.06
2024-02-08T12:29:58.964Z,97006.28
2024-02-08T12:35:27.538Z,97004.34
2024-02-08T12:40:50.532Z,97004.59
2024-02-08T12:46:16.148Z,97004.75
2024-02-08T12:51:38.513Z,97013.00
2024-02-08T12:57:14.130Z,97002.75
2024-02-08T13:02:36.481Z,97009.00
2024-02-08T13:07:59.973Z,96997.50
2024-02-08T13:13:24.712Z,97009.25
2024-02-08T13:18:56.702Z,96996.34
2024-02-08T13:24:19.086Z,96986.28
2024-02-08T13:29:40.919Z,96970.78
2024-02-08T13:35:03.167Z,96972.50
2024-02-08T13:40:26.279Z,96952.34
2024-02-08T13:45:51.758Z,96958.19
2024-02-08T13:51:17.756Z,96947.94
2024-02-08T13:56:41.731Z,96964.06
2024-02-08T14:02:04.392Z,96967.16
2024-02-08T14:07:30.142Z,96969.56
2024-02-08T14:12:54.789Z,96982.38
2024-02-08T14:18:28.804Z,96950.88
2024-02-08T14:23:59.575Z,96960.81
2024-02-08T14:29:21.426Z,96966.38
2024-02-08T14:34:44.857Z,96960.38
2024-02-08T14:40:15.199Z,96952.19
2024-02-08T14:45:39.308Z,96956.81
2024-02-08T14:51:23.688Z,96951.84
2024-02-08T14:57:05.600Z,96945.09
2024-02-08T15:02:30.672Z,96936.66
2024-02-08T15:08:09.659Z,96930.56
2024-02-08T15:13:46.884Z,96921.78
2024-02-08T15:19:09.079Z,96907.75
2024-02-08T15:24:30.979Z,96906.66
2024-02-08T15:29:53.973Z,96892.13
2024-02-08T15:35:24.974Z,96881.94
2024-02-08T15:40:48.933Z,96895.50
2024-02-08T15:46:12.011Z,96892.56
2024-02-08T15:51:38.288Z,96890.94
2024-02-08T15:57:08.947Z,96887.03
2024-02-08T16:02:35.907Z,96881.56
2024-02-08T16:08:07.369Z,96854.22
2024-02-08T16:13:35.836Z,96852.84
2024-02-08T16:19:02.684Z,96845.22
2024-02-08T16:24:24.638Z,96833.13
2024-02-08T16:30:00.601Z,96829.63
2024-02-08T16:35:42.172Z,96825.25
2024-02-08T16:41:07.306Z,96821.31
2024-02-08T16:46:36.777Z,96811.06
2024-02-08T16:52:05.360Z,96805.56
2024-02-08T16:57:36.787Z,96804.63
2024-02-08T17:03:30.740Z,96800.72
2024-02-08T17:09:02.727Z,96808.44
2024-02-08T17:14:26.654Z,96801.56
2024-02-08T17:19:58.279Z,96789.97
2024-02-08T17:25:26.153Z,96791.84
2024-02-08T17:31:06.492Z,96788.22
2024-02-08T17:36:34.445Z,96783.09
2024-02-08T17:42:09.269Z,96772.81
2024-02-08T17:47:36.125Z,96770.16
2024-02-08T17:53:00.176Z,96761.00
2024-02-08T17:58:24.914Z,96757.81
2024-02-08T18:03:47.781Z,96759.56
2024-02-08T18:09:17.713Z,96761.19
2024-02-08T18:14:43.788Z,96754.13
2024-02-08T18:20:16.021Z,96747.56
2024-02-08T18:25:38.818Z,96736.22
2024-02-08T18:31:07.106Z,96726.91
2024-02-08T18:36:29.169Z,96724.28
2024-02-08T18:41:52.034Z,96722.66
2024-02-08T18:47:19.496Z,96715.63
2024-02-08T18:52:43.097Z,96709.72
2024-02-08T18:58:05.176Z,96699.53
2024-02-08T19:03:31.839Z,96706.31
2024-02-08T19:08:53.860Z,96707.16
2024-02-08T19:14:17.315Z,96719.16
2024-02-08T19:19:46.365Z,96722.47
2024-02-08T19:25:08.929Z,96696.72
2024-02-08T19:30:31.627Z,96696.28
2024-02-08T19:35:55.930Z,96687.75
2024-02-08T19:41:19.964Z,96657.53
2024-02-08T19:46:53.587Z,96653.81
2024-02-08T19:52:22.069Z,96647.06
2024-02-08T19:57:46.857Z,96641.09
2024-02-08T20:03:09.502Z,96631.16
2024-02-08T20:08:31.852Z,96642.75
2024-02-08T20:14:00.160Z,96644.84
2024-02-08T20:19:22.799Z,96641.91
2024-02-08T20:24:47.001Z,96640.81
2024-02-08T20:30:11.904Z,96638.38
2024-02-08T20:35:33.737Z,96652.44
2024-02-08T20:40:57.382Z,96619.34
2024-02-08T20:46:19.651Z,96617.72
2024-02-08T20:51:44.648Z,96623.78
2024-02-08T20:57:11.252Z,96624.47
2024-02-08T21:02:33.114Z,96626.97
2024-02-08T21:07:58.286Z,96617.34
2024-02-08T21:13:23.219Z,96613.22
2024-02-08T21:18:46.590Z,96631.13
2024-02-08T21:24:11.981Z,96612.16
2024-02-08T21:29:38.529Z,96606.31
2024-02-08T21:35:00.460Z,96601.75
2024-02-08T21:40:22.762Z,96588.03
2024-02-08T21:45:48.403Z,96600.25
2024-02-08T21:51:12.929Z,96591.34
2024-02-08T21:56:38.886Z,96587.50
2024-02-08T22:02:01.629Z,96599.09
2024-02-08T22:07:23.609Z,96594.06
2024-02-08T22:17:54.464Z,96588.34
2024-02-08T22:23:16.403Z,96581.69
2024-02-08T22:28:40.348Z,96575.63
2024-02-08T22:34:02.437Z,96570.97
2024-02-08T22:39:25.740Z,96564.59
2024-02-08T22:44:47.640Z,96560.84
2024-02-08T22:50:14.036Z,96552.03
2024-02-08T22:55:36.150Z,96560.41
2024-02-08T23:01:23.926Z,96567.34
2024-02-08T23:06:46.502Z,96553.34
2024-02-08T23:12:11.810Z,96537.31
2024-02-08T23:17:33.851Z,96530.56
2024-02-08T23:22:57.879Z,96526.97
2024-02-08T23:28:21.029Z,96512.81
2024-02-08T23:33:44.333Z,96513.81
2024-02-08T23:39:08.352Z,96498.56
2024-02-08T23:44:30.310Z,96481.13
2024-02-08T23:49:52.315Z,96501.69
2024-02-08T23:55:14.948Z,96490.00
